createdAt,value
2023-09-06T00:03:27.835Z,23.8
2023-09-06T00:09:21.509Z,23.7
2023-09-06T00:15:14.156Z,23.8
2023-09-06T00:21:06.273Z,23.8
2023-09-06T00:26:59.333Z,23.8
2023-09-06T00:32:51.861Z,23.8
2023-09-06T00:38:44.390Z,23.8
2023-09-06T00:44:36.748Z,23.8
2023-09-06T00:50:28.852Z,23.8
2023-09-06T00:56:19.764Z,23.8
2023-09-06T01:02:13.431Z,23.8
2023-09-06T01:08:06.063Z,23.8
2023-09-06T01:13:56.335Z,23.8
2023-09-06T01:19:49.966Z,23.8
2023-09-06T01:25:42.378Z,23.8
2023-09-06T01:31:35.045Z,23.8
2023-09-06T01:37:28.186Z,23.8
2023-09-06T01:43:19.902Z,23.8
2023-09-06T01:49:12.248Z,23.8
2023-09-06T01:55:04.248Z,23.8
2023-09-06T02:00:25.786Z,23.8
2023-09-06T02:06:18.295Z,23.8
2023-09-06T02:12:10.598Z,23.8
2023-09-06T02:17:47.489Z,23.8
2023-09-06T02:23:39.587Z,23.8
2023-09-06T02:29:31.846Z,23.8
2023-09-06T02:35:24.321Z,23.8
2023-09-06T02:41:16.027Z,23.8
2023-09-06T02:47:08.459Z,23.8
2023-09-06T02:53:01.239Z,23.8
2023-09-06T02:58:53.522Z,23.8
2023-09-06T03:04:46.597Z,23.8
2023-09-06T03:10:38.826Z,23.8
2023-09-06T03:16:32.001Z,23.8
2023-09-06T03:22:24.393Z,23.8
2023-09-06T03:28:15.991Z,23.8
2023-09-06T03:34:08.933Z,23.8
2023-09-06T03:40:01.587Z,23.8
2023-09-06T03:45:54.070Z,23.8
2023-09-06T03:51:32.473Z,23.7
2023-09-06T03:57:25.098Z,23.6
2023-09-06T04:03:18.942Z,23.6
2023-09-06T04:09:11.843Z,23.5
2023-09-06T04:15:06.238Z,23.4
2023-09-06T04:20:58.970Z,23.4
2023-09-06T04:26:50.255Z,23.4
2023-09-06T04:32:43.994Z,23.3
2023-09-06T04:38:35.251Z,23.2
2023-09-06T04:44:26.941Z,23.1
2023-09-06T04:50:08.669Z,23.1
2023-09-06T04:56:01.133Z,23
2023-09-06T05:01:53.181Z,22.9
2023-09-06T05:07:46.368Z,22.9
2023-09-06T05:13:38.555Z,22.8
2023-09-06T05:19:31.237Z,22.8
2023-09-06T05:25:23.296Z,22.8
2023-09-06T05:30:43.742Z,22.8
2023-09-06T05:36:35.433Z,22.8
2023-09-06T05:42:14.531Z,22.8
2023-09-06T05:48:28.459Z,22.8
2023-09-06T05:54:19.932Z,22.8
2023-09-06T06:00:14.085Z,22.7
2023-09-06T06:06:06.967Z,22.8
2023-09-06T06:12:00.917Z,22.7
2023-09-06T06:18:01.816Z,22.7
2023-09-06T06:24:01.935Z,22.8
2023-09-06T06:29:55.112Z,22.8
2023-09-06T06:35:50.617Z,22.8
2023-09-06T06:41:42.948Z,22.8
2023-09-06T06:47:34.727Z,22.8
2023-09-06T06:53:31.496Z,22.8
2023-09-06T06:59:24.013Z,22.8
2023-09-06T07:05:15.863Z,22.8
2023-09-06T07:11:08.850Z,22.8
2023-09-06T07:17:04.864Z,22.8
2023-09-06T07:22:57.577Z,22.8
2023-09-06T07:28:49.504Z,22.8
2023-09-06T07:34:41.574Z,22.8
2023-09-06T07:40:35.588Z,22.8
2023-09-06T07:46:28.241Z,22.8
2023-09-06T07:52:23.099Z,22.9
2023-09-06T07:58:14.216Z,22.9
2023-09-06T08:04:22.481Z,22.9
2023-09-06T08:10:15.190Z,22.9
2023-09-06T08:15:52.288Z,22.9
2023-09-06T08:21:48.206Z,22.9
2023-09-06T08:27:54.067Z,22.9
2023-09-06T08:33:49.342Z,23
2023-09-06T08:39:41.924Z,23
2023-09-06T08:45:18.596Z,23
2023-09-06T08:51:13.062Z,23
2023-09-06T08:56:50.436Z,23.1
2023-09-06T09:02:45.308Z,23.1
2023-09-06T09:08:53.854Z,23.1
2023-09-06T09:14:31.685Z,23.1
2023-09-06T09:20:58.226Z,23.2
2023-09-06T09:26:51.086Z,23.2
2023-09-06T09:32:45.482Z,23.2
2023-09-06T09:38:38.109Z,23.2
2023-09-06T09:44:28.358Z,23.3
2023-09-06T09:50:54.501Z,23.3
2023-09-06T09:56:57.341Z,23.3
2023-09-06T10:02:40.773Z,23.3
2023-09-06T10:08:53.952Z,23.3
2023-09-06T10:14:47.104Z,23.3
2023-09-06T10:20:57.996Z,23.3
2023-09-06T10:26:52.501Z,23.3
2023-09-06T10:33:02.670Z,23.4
2023-09-06T10:38:54.384Z,23.3
2023-09-06T10:44:46.515Z,23.4
2023-09-06T10:50:42.234Z,23.4
2023-09-06T10:56:20.782Z,23.4
2023-09-06T11:02:11.032Z,23.4
2023-09-06T11:08:23.714Z,23.4
2023-09-06T11:14:15.975Z,23.4
2023-09-06T11:20:09.213Z,23.4
2023-09-06T11:25:46.412Z,23.4
2023-09-06T11:31:39.408Z,23.4
2023-09-06T11:37:32.314Z,23.4
2023-09-06T11:43:24.009Z,23.4
2023-09-06T11:49:16.599Z,23.5
2023-09-06T11:55:24.873Z,23.5
2023-09-06T12:01:18.357Z,23.5
2023-09-06T12:07:26.656Z,23.5
2023-09-06T12:13:20.037Z,23.5
2023-09-06T12:19:00.662Z,23.5
2023-09-06T12:24:37.137Z,23.5
2023-09-06T12:30:13.928Z,23.5
2023-09-06T12:36:20.521Z,23.5
2023-09-06T12:42:12.056Z,23.6
2023-09-06T12:48:07.212Z,23.5
2023-09-06T12:53:59.555Z,23.5
2023-09-06T12:59:55.075Z,23.5
2023-09-06T13:05:48.821Z,23.5
2023-09-06T13:11:41.106Z,23.5
2023-09-06T13:17:21.011Z,23.5
2023-09-06T13:23:14.351Z,23.6
2023-09-06T13:29:06.571Z,23.6
2023-09-06T13:35:00.227Z,23.6
2023-09-06T13:40:54.097Z,23.6
2023-09-06T13:46:48.079Z,23.6
2023-09-06T13:52:40.218Z,23.6
2023-09-06T13:58:33.126Z,23.6
2023-09-06T14:04:11.198Z,23.6
2023-09-06T14:10:02.848Z,23.6
2023-09-06T14:15:55.613Z,23.6
2023-09-06T14:21:32.347Z,23.6
2023-09-06T14:27:24.595Z,23.6
2023-09-06T14:33:19.298Z,23.6
2023-09-06T14:39:10.759Z,23.6
2023-09-06T14:44:47.827Z,23.6
2023-09-06T14:50:41.550Z,23.6
2023-09-06T14:56:36.381Z,23.6
2023-09-06T15:02:15.787Z,23.6
2023-09-06T15:08:30.985Z,23.6
2023-09-06T15:14:07.376Z,23.6
2023-09-06T15:19:59.210Z,23.6
2023-09-06T15:26:03.168Z,23.6
2023-09-06T15:31:55.082Z,23.5
2023-09-06T15:37:46.168Z,23.5
2023-09-06T15:43:37.723Z,23.5
2023-09-06T15:49:29.887Z,23.4
2023-09-06T15:55:21.822Z,23.5
2023-09-06T16:01:31.814Z,23.4
2023-09-06T16:07:26.762Z,23.4
2023-09-06T16:13:21.828Z,23.4
2023-09-06T16:19:14.898Z,23.4
2023-09-06T16:25:08.209Z,23.4
2023-09-06T16:31:00.906Z,23.4
2023-09-06T16:36:55.912Z,23.4
2023-09-06T16:42:47.255Z,23.4
2023-09-06T16:48:40.997Z,23.3
2023-09-06T16:54:34.022Z,23.4
2023-09-06T17:00:25.917Z,23.4
2023-09-06T17:06:18.669Z,23.4
2023-09-06T17:12:10.528Z,23.4
2023-09-06T17:18:02.685Z,23.4
2023-09-06T17:24:06.285Z,23.4
2023-09-06T17:29:57.828Z,23.4
2023-09-06T17:35:49.884Z,23.4
2023-09-06T17:41:25.047Z,23.4
2023-09-06T17:47:17.263Z,23.4
2023-09-06T17:53:11.506Z,23.4
2023-09-06T17:59:03.223Z,23.4
2023-09-06T18:05:00.112Z,23.4
2023-09-06T18:10:53.575Z,23.4
2023-09-06T18:16:45.616Z,23.5
2023-09-06T18:22:37.712Z,23.5
2023-09-06T18:28:45.776Z,23.5
2023-09-06T18:34:22.935Z,23.5
2023-09-06T18:39:59.449Z,23.5
2023-09-06T18:45:36.133Z,23.5
2023-09-06T18:51:29.357Z,23.5
2023-09-06T18:57:22.051Z,23.5
2023-09-06T19:03:27.679Z,23.5
2023-09-06T19:09:20.100Z,23.5
2023-09-06T19:15:11.882Z,23.6
2023-09-06T19:21:05.908Z,23.5
2023-09-06T19:26:57.842Z,23.5
2023-09-06T19:32:54.020Z,23.5
2023-09-06T19:38:46.983Z,23.5
2023-09-06T19:44:22.800Z,23.6
2023-09-06T19:50:33.269Z,23.5
2023-09-06T19:56:24.819Z,23.6
2023-09-06T20:02:16.517Z,23.6
2023-09-06T20:07:56.107Z,23.5
2023-09-06T20:13:32.520Z,23.6
2023-09-06T20:19:26.294Z,23.6
2023-09-06T20:25:17.829Z,23.5
2023-09-06T20:31:09.544Z,23.6
2023-09-06T20:37:01.758Z,23.6
2023-09-06T20:42:54.157Z,23.6
2023-09-06T20:48:46.815Z,23.5
2023-09-06T20:54:38.070Z,23.5
2023-09-06T21:00:29.902Z,23.5
2023-09-06T21:06:10.305Z,23.5
2023-09-06T21:11:45.560Z,23.5
2023-09-06T21:17:22.811Z,23.5
2023-09-06T21:23:16.464Z,23.4
2023-09-06T21:29:14.829Z,23.4
2023-09-06T21:35:10.671Z,23.4
2023-09-06T21:41:01.624Z,23.5
2023-09-06T21:47:07.725Z,23.4
2023-09-06T21:53:00.747Z,23.5
2023-09-06T21:59:08.328Z,23.5
2023-09-06T22:05:01.378Z,23.5
2023-09-06T22:10:53.259Z,23.5
2023-09-06T22:16:45.356Z,23.5
2023-09-06T22:22:36.761Z,23.5
2023-09-06T22:28:29.169Z,23.6
2023-09-06T22:34:21.987Z,23.5
2023-09-06T22:39:57.944Z,23.5
2023-09-06T22:45:51.225Z,23.6
2023-09-06T22:51:57.448Z,23.5
2023-09-06T22:57:50.178Z,23.6
2023-09-06T23:03:45.369Z,23.6
2023-09-06T23:09:23.461Z,23.6
2023-09-06T23:14:59.620Z,23.6
2023-09-06T23:20:52.687Z,23.6
2023-09-06T23:26:29.919Z,23.6
2023-09-06T23:32:22.221Z,23.6
2023-09-06T23:38:15.446Z,23.6
2023-09-06T23:43:52.588Z,23.6
2023-09-06T23:49:29.384Z,23.6
2023-09-06T23:55:19.061Z,23.6
